createdAt,value
2023-02-12T00:00:39.005Z,61.27
2023-02-12T00:01:41.046Z,61.08
2023-02-12T00:02:42.913Z,60.80
2023-02-12T00:03:44.840Z,61.01
2023-02-12T00:04:47.986Z,60.66
2023-02-12T00:05:49.908Z,60.50
2023-02-12T00:06:51.663Z,60.52
2023-02-12T00:07:54.010Z,60.61
2023-02-12T00:08:58.573Z,60.24
2023-02-12T00:10:00.258Z,60.36
2023-02-12T00:11:17.445Z,60.38
2023-02-12T00:12:19.179Z,60.40
2023-02-12T00:13:20.896Z,60.13
2023-02-12T00:14:22.657Z,60.48
2023-02-12T00:15:24.450Z,60.52
2023-02-12T00:16:28.681Z,60.54
2023-02-12T00:17:30.450Z,60.47
2023-02-12T00:18:32.285Z,60.09
2023-02-12T00:19:33.973Z,60.20
2023-02-12T00:20:37.866Z,60.26
2023-02-12T00:21:39.527Z,60.30
2023-02-12T00:22:41.167Z,59.83
2023-02-12T00:23:43.766Z,59.63
2023-02-12T00:24:45.486Z,59.76
2023-02-12T00:25:47.156Z,59.60
2023-02-12T00:26:48.856Z,59.89
2023-02-12T00:27:50.518Z,59.80
2023-02-12T00:28:52.872Z,59.42
2023-02-12T00:29:54.706Z,59.44
2023-02-12T00:30:56.452Z,59.40
2023-02-12T00:31:58.284Z,59.00
2023-02-12T00:33:00.087Z,58.96
2023-02-12T00:34:01.944Z,58.61
2023-02-12T00:35:04.338Z,58.61
2023-02-12T00:36:06.505Z,58.95
2023-02-12T00:37:08.263Z,58.65
2023-02-12T00:38:10.031Z,58.49
2023-02-12T00:39:12.360Z,58.39
2023-02-12T00:40:14.063Z,58.41
2023-02-12T00:41:15.804Z,58.43
2023-02-12T00:42:17.526Z,58.45
2023-02-12T00:43:20.058Z,58.58
2023-02-12T00:44:21.803Z,58.64
2023-02-12T00:45:23.469Z,58.60
2023-02-12T00:46:25.203Z,58.67
2023-02-12T00:47:26.944Z,58.52
2023-02-12T00:48:29.282Z,58.64
2023-02-12T00:49:31.976Z,58.54
2023-02-12T00:50:33.648Z,58.70
2023-02-12T00:51:35.356Z,58.95
2023-02-12T00:52:37.182Z,58.75
2023-02-12T00:53:38.905Z,58.78
2023-02-12T00:54:40.632Z,58.54
2023-02-12T00:55:42.585Z,58.43
2023-02-12T00:56:44.239Z,58.54
2023-02-12T00:57:45.966Z,58.81
2023-02-12T00:58:47.656Z,59.23
2023-02-12T00:59:49.817Z,59.49
2023-02-12T01:00:51.795Z,59.63
2023-02-12T01:01:55.215Z,59.52
2023-02-12T01:02:57.579Z,59.72
2023-02-12T01:03:59.258Z,60.06
2023-02-12T01:05:01.148Z,60.16
2023-02-12T01:06:03.104Z,60.27
2023-02-12T01:07:04.833Z,60.46
2023-02-12T01:08:06.526Z,60.44
2023-02-12T01:09:08.487Z,60.92
2023-02-12T01:10:10.508Z,60.82
2023-02-12T01:11:13.599Z,60.63
2023-02-12T01:12:15.264Z,60.56
2023-02-12T01:13:17.481Z,60.73
2023-02-12T01:14:19.145Z,60.64
2023-02-12T01:15:21.670Z,60.46
2023-02-12T01:16:24.921Z,60.65
2023-02-12T01:17:26.849Z,60.32
2023-02-12T01:18:28.598Z,60.15
2023-02-12T01:19:30.277Z,59.92
2023-02-12T01:20:32.035Z,59.64
2023-02-12T01:21:34.855Z,59.23
2023-02-12T01:22:37.666Z,59.01
2023-02-12T01:23:40.030Z,58.79
2023-02-12T01:24:41.737Z,58.78
2023-02-12T01:25:43.404Z,58.58
2023-02-12T01:26:45.095Z,58.70
2023-02-12T01:27:46.983Z,58.52
2023-02-12T01:28:52.024Z,58.45
2023-02-12T01:29:53.751Z,58.29
2023-02-12T01:30:55.513Z,58.40
2023-02-12T01:31:57.468Z,58.42
2023-02-12T01:32:59.213Z,57.97
2023-02-12T01:34:01.448Z,58.00
2023-02-12T01:35:03.329Z,58.22
2023-02-12T01:36:05.578Z,58.37
2023-02-12T01:37:07.312Z,58.31
2023-02-12T01:38:09.042Z,58.23
2023-02-12T01:39:11.678Z,58.13
2023-02-12T01:40:15.334Z,58.17
2023-02-12T01:41:23.082Z,57.87
2023-02-12T01:42:24.755Z,57.86
2023-02-12T01:43:26.508Z,57.67
2023-02-12T01:44:33.328Z,57.64
2023-02-12T01:45:43.151Z,57.07
2023-02-12T01:46:46.519Z,57.22
2023-02-12T01:47:48.272Z,56.96
2023-02-12T01:48:50.046Z,57.60
2023-02-12T01:49:51.789Z,57.05
2023-02-12T01:50:54.344Z,57.38
2023-02-12T01:52:03.203Z,57.55
2023-02-12T01:53:05.247Z,57.62
2023-02-12T01:54:10.808Z,58.27
2023-02-12T01:55:14.329Z,58.39
2023-02-12T01:56:17.710Z,58.57
2023-02-12T01:57:20.507Z,58.13
2023-02-12T01:58:24.540Z,58.21
2023-02-12T01:59:26.830Z,58.23
2023-02-12T02:00:28.637Z,58.34
2023-02-12T02:01:32.478Z,58.49
2023-02-12T02:02:35.072Z,58.53
2023-02-12T02:03:39.918Z,58.48
2023-02-12T02:04:48.726Z,58.60
2023-02-12T02:05:55.237Z,58.63
2023-02-12T02:07:01.118Z,58.87
2023-02-12T02:08:03.032Z,58.90
2023-02-12T02:09:05.199Z,58.79
2023-02-12T02:10:08.602Z,59.05
2023-02-12T02:11:10.453Z,59.14
2023-02-12T02:12:12.209Z,59.01
2023-02-12T02:13:14.338Z,58.85
2023-02-12T02:14:16.561Z,58.88
2023-02-12T02:15:18.425Z,59.00
2023-02-12T02:16:27.936Z,59.00
2023-02-12T02:19:20.685Z,59.41
2023-02-12T02:20:40.831Z,59.35
2023-02-12T02:21:42.549Z,59.91
2023-02-12T02:23:16.287Z,59.76
2023-02-12T02:24:27.223Z,59.96
2023-02-12T02:25:47.072Z,59.79
2023-02-12T02:27:08.224Z,59.84
2023-02-12T02:28:53.503Z,59.84
2023-02-12T02:29:55.218Z,59.87
2023-02-12T02:31:04.365Z,59.95
2023-02-12T02:32:20.181Z,60.58
2023-02-12T02:34:00.185Z,60.46
2023-02-12T02:35:08.021Z,60.01
2023-02-12T02:36:40.005Z,60.22
2023-02-12T02:38:11.773Z,59.70
2023-02-12T02:39:26.185Z,59.67
2023-02-12T02:40:50.166Z,59.49
2023-02-12T02:42:16.225Z,59.26
2023-02-12T02:43:28.618Z,58.90
2023-02-12T02:45:03.423Z,58.80
2023-02-12T02:46:14.902Z,59.06
2023-02-12T02:47:20.788Z,58.87
2023-02-12T02:48:27.308Z,59.00
2023-02-12T02:49:39.641Z,58.60
2023-02-12T02:50:47.883Z,58.59
2023-02-12T02:51:56.252Z,59.50
2023-02-12T02:53:06.216Z,59.28
2023-02-12T02:54:13.132Z,59.35
2023-02-12T02:55:18.303Z,59.19
2023-02-12T02:56:23.522Z,59.75
2023-02-12T02:57:34.375Z,59.59
2023-02-12T02:58:42.052Z,59.80
2023-02-12T02:59:50.396Z,60.00
2023-02-12T03:01:04.765Z,59.97
2023-02-12T03:02:16.697Z,59.95
2023-02-12T03:03:34.879Z,60.00
2023-02-12T03:04:42.481Z,60.29
2023-02-12T03:05:50.091Z,60.48
2023-02-12T03:06:59.551Z,60.03
2023-02-12T03:08:19.824Z,59.58
2023-02-12T03:09:31.714Z,58.96
2023-02-12T03:10:40.999Z,58.33
2023-02-12T03:11:43.234Z,58.36
2023-02-12T03:13:02.354Z,58.06
2023-02-12T03:14:23.326Z,58.26
2023-02-12T03:15:35.847Z,58.58
2023-02-12T03:16:43.564Z,58.64
2023-02-12T03:17:48.248Z,58.69
2023-02-12T03:18:58.631Z,58.72
2023-02-12T03:20:25.565Z,58.76
2023-02-12T03:21:33.929Z,58.55
2023-02-12T03:22:39.954Z,58.29
2023-02-12T03:23:52.970Z,58.53
2023-02-12T03:25:01.938Z,58.39
2023-02-12T03:26:15.282Z,58.38
2023-02-12T03:27:39.733Z,58.57
2023-02-12T03:28:41.569Z,58.46
2023-02-12T03:29:43.674Z,58.28
2023-02-12T03:31:07.462Z,57.97
2023-02-12T03:32:17.918Z,58.04
2023-02-12T03:33:39.463Z,58.05
2023-02-12T03:34:52.707Z,58.19
2023-02-12T03:36:07.931Z,58.00
2023-02-12T03:37:22.105Z,58.20
2023-02-12T03:38:47.873Z,58.17
2023-02-12T03:40:11.821Z,58.09
2023-02-12T03:41:19.291Z,58.22
2023-02-12T03:42:47.053Z,58.36
2023-02-12T03:44:17.958Z,58.23
2023-02-12T03:45:56.154Z,58.07
2023-02-12T03:47:29.269Z,58.11
2023-02-12T03:48:30.873Z,58.16
2023-02-12T03:49:56.005Z,58.15
2023-02-12T03:51:10.665Z,58.02
2023-02-12T03:52:12.909Z,58.07
2023-02-12T03:53:14.741Z,58.18
2023-02-12T03:54:20.270Z,58.08
2023-02-12T03:55:22.099Z,57.81
2023-02-12T03:56:33.280Z,58.07
2023-02-12T03:57:45.160Z,58.03
2023-02-12T03:58:46.897Z,58.14
2023-02-12T03:59:49.081Z,58.05
2023-02-12T04:00:51.636Z,58.28
2023-02-12T04:01:55.791Z,58.74
2023-02-12T04:02:58.147Z,58.68
2023-02-12T04:04:04.090Z,58.74
2023-02-12T04:05:08.728Z,58.37
2023-02-12T04:06:21.818Z,58.47
2023-02-12T04:07:23.736Z,58.84
2023-02-12T04:08:27.389Z,59.10
2023-02-12T04:09:31.297Z,59.20
2023-02-12T04:10:50.896Z,59.27
2023-02-12T04:11:55.639Z,59.15
2023-02-12T04:13:12.029Z,59.60
2023-02-12T04:14:22.995Z,59.57
2023-02-12T04:15:43.807Z,59.70
2023-02-12T04:16:45.740Z,59.45
2023-02-12T04:18:18.276Z,59.42
2023-02-12T04:19:43.668Z,59.18
2023-02-12T04:21:13.126Z,59.60
2023-02-12T04:22:29.943Z,59.57
2023-02-12T04:23:47.460Z,59.25
2023-02-12T04:25:21.102Z,60.45
2023-02-12T04:26:49.419Z,61.27
2023-02-12T04:27:53.934Z,62.20
2023-02-12T04:29:21.092Z,62.41
2023-02-12T04:30:30.612Z,62.28
2023-02-12T04:32:05.732Z,62.47
2023-02-12T04:33:11.920Z,62.40
2023-02-12T04:34:44.218Z,62.80
2023-02-12T04:35:55.609Z,62.43
2023-02-12T04:37:05.787Z,62.31
2023-02-12T04:38:13.956Z,61.97
2023-02-12T04:39:22.052Z,61.75
2023-02-12T04:40:24.165Z,61.88
2023-02-12T04:41:27.119Z,61.34
2023-02-12T04:42:29.171Z,61.09
2023-02-12T04:43:36.310Z,61.07
2023-02-12T04:44:41.224Z,60.71
2023-02-12T04:45:42.980Z,60.12
2023-02-12T04:46:44.966Z,59.72
2023-02-12T04:47:47.314Z,59.93
2023-02-12T04:48:58.133Z,60.32
2023-02-12T04:49:59.992Z,59.88
2023-02-12T04:51:02.306Z,60.18
2023-02-12T04:52:04.038Z,60.14
2023-02-12T04:53:06.082Z,60.14
2023-02-12T04:54:08.016Z,60.33
2023-02-12T04:55:09.745Z,60.54
2023-02-12T04:56:12.361Z,60.45
2023-02-12T04:57:14.028Z,60.62
2023-02-12T04:58:15.769Z,61.13
2023-02-12T04:59:18.043Z,60.91
2023-02-12T05:00:20.153Z,61.27
2023-02-12T05:01:21.902Z,61.23
2023-02-12T05:02:23.783Z,61.70
2023-02-12T05:03:25.521Z,62.03
2023-02-12T05:04:27.303Z,62.86
2023-02-12T05:05:29.229Z,62.67
2023-02-12T05:06:31.416Z,62.96
2023-02-12T05:07:33.138Z,62.64
2023-02-12T05:08:35.464Z,62.73
2023-02-12T05:09:37.276Z,62.61
2023-02-12T05:10:38.940Z,62.78
2023-02-12T05:11:40.764Z,62.82
2023-02-12T05:12:42.782Z,62.57
2023-02-12T05:13:44.541Z,62.93
2023-02-12T05:14:46.417Z,62.92
2023-02-12T05:15:48.165Z,63.21
2023-02-12T05:16:49.910Z,63.09
2023-02-12T05:17:51.732Z,62.89
2023-02-12T05:18:53.553Z,63.03
2023-02-12T05:19:55.344Z,62.94
2023-02-12T05:21:02.142Z,63.03
2023-02-12T05:22:03.829Z,63.26
2023-02-12T05:23:05.458Z,63.13
2023-02-12T05:24:07.322Z,63.17
2023-02-12T05:25:09.005Z,62.93
2023-02-12T05:26:19.716Z,63.07
2023-02-12T05:27:21.394Z,62.92
2023-02-12T05:28:23.228Z,62.69
2023-02-12T05:29:24.993Z,62.81
2023-02-12T05:30:27.484Z,62.44
2023-02-12T05:31:29.491Z,62.45
2023-02-12T05:32:31.328Z,62.41
2023-02-12T05:33:33.284Z,62.19
2023-02-12T05:34:35.396Z,62.40
2023-02-12T05:35:37.162Z,62.24
2023-02-12T05:36:40.083Z,62.25
2023-02-12T05:37:41.809Z,62.23
2023-02-12T05:38:43.948Z,62.23
2023-02-12T05:39:45.683Z,62.30
2023-02-12T05:40:47.460Z,62.47
2023-02-12T05:41:49.288Z,62.64
2023-02-12T05:42:50.933Z,62.47
2023-02-12T05:43:53.568Z,62.43
2023-02-12T05:44:55.339Z,61.94
2023-02-12T05:45:59.923Z,62.11
2023-02-12T05:47:01.710Z,62.25
2023-02-12T05:48:03.932Z,62.20
2023-02-12T05:49:05.608Z,61.90
2023-02-12T05:50:08.110Z,61.59
2023-02-12T05:51:15.588Z,61.44
2023-02-12T05:52:17.392Z,61.00
2023-02-12T05:53:19.272Z,60.89
2023-02-12T05:54:20.999Z,61.06
2023-02-12T05:55:22.788Z,61.52
2023-02-12T05:56:26.924Z,62.03
2023-02-12T05:57:28.644Z,62.14
2023-02-12T05:58:30.428Z,62.49
2023-02-12T05:59:32.114Z,62.66
2023-02-12T06:00:33.829Z,62.90
2023-02-12T06:01:41.324Z,62.88
2023-02-12T06:02:43.187Z,63.36
2023-02-12T06:03:45.045Z,64.23
2023-02-12T06:04:48.612Z,65.66
2023-02-12T06:05:52.013Z,66.26
2023-02-12T06:06:55.867Z,66.72
2023-02-12T06:07:57.622Z,67.04
2023-02-12T06:08:59.554Z,67.05
2023-02-12T06:10:01.539Z,67.36
2023-02-12T06:11:11.107Z,67.80
2023-02-12T06:12:12.800Z,68.39
2023-02-12T06:13:14.504Z,68.49
2023-02-12T06:14:18.601Z,68.89
2023-02-12T06:15:20.357Z,68.93
2023-02-12T06:16:24.738Z,69.91
2023-02-12T06:17:26.627Z,70.46
2023-02-12T06:18:28.588Z,69.84
2023-02-12T06:19:30.347Z,69.90
2023-02-12T06:20:32.053Z,69.93
2023-02-12T06:21:34.330Z,69.45
2023-02-12T06:22:36.069Z,69.17
2023-02-12T06:23:37.814Z,69.09
2023-02-12T06:24:39.563Z,69.41
2023-02-12T06:25:41.283Z,69.98
2023-02-12T06:26:43.313Z,70.53
2023-02-12T06:27:45.296Z,71.22
2023-02-12T06:28:47.274Z,71.67
2023-02-12T06:29:49.059Z,71.89
2023-02-12T06:30:51.283Z,71.90
2023-02-12T06:31:53.254Z,72.40
2023-02-12T06:32:55.065Z,72.38
2023-02-12T06:33:58.783Z,72.40
2023-02-12T06:35:00.451Z,72.62
2023-02-12T06:36:04.387Z,72.75
2023-02-12T06:37:06.314Z,73.07
2023-02-12T06:38:08.022Z,72.99
2023-02-12T06:39:11.607Z,73.23
2023-02-12T06:40:13.650Z,73.67
2023-02-12T06:41:15.593Z,73.49
2023-02-12T06:42:17.480Z,73.73
2023-02-12T06:43:19.194Z,73.79
2023-02-12T06:44:20.955Z,73.83
2023-02-12T06:45:23.330Z,73.84
2023-02-12T06:46:25.752Z,74.05
2023-02-12T06:47:28.142Z,74.07
2023-02-12T06:48:30.201Z,74.46
2023-02-12T06:49:32.095Z,74.65
2023-02-12T06:50:34.136Z,74.89
2023-02-12T06:51:35.929Z,74.97
2023-02-12T06:52:37.665Z,75.00
2023-02-12T06:53:39.903Z,75.12
2023-02-12T06:54:41.772Z,75.19
2023-02-12T06:55:43.457Z,75.30
2023-02-12T06:56:45.578Z,75.31
2023-02-12T06:57:47.247Z,75.34
2023-02-12T06:58:54.024Z,75.30
2023-02-12T06:59:56.263Z,75.29
2023-02-12T07:00:58.120Z,75.17
2023-02-12T07:01:59.827Z,75.17
2023-02-12T07:03:01.541Z,74.93
2023-02-12T07:04:03.798Z,74.57
2023-02-12T07:05:05.930Z,74.52
2023-02-12T07:06:08.750Z,74.25
2023-02-12T07:07:10.472Z,74.42
2023-02-12T07:08:12.247Z,74.29
2023-02-12T07:09:14.059Z,73.99
2023-02-12T07:10:16.221Z,74.07
2023-02-12T07:11:18.716Z,73.87
2023-02-12T07:12:20.516Z,73.91
2023-02-12T07:13:22.402Z,73.67
2023-02-12T07:14:24.418Z,73.41
2023-02-12T07:15:26.233Z,73.11
2023-02-12T07:16:28.052Z,73.13
2023-02-12T07:17:30.294Z,73.21
2023-02-12T07:18:32.095Z,72.57
2023-02-12T07:19:33.788Z,72.60
2023-02-12T07:20:35.499Z,72.61
2023-02-12T07:21:37.226Z,72.57
2023-02-12T07:22:38.977Z,72.48
2023-02-12T07:23:40.916Z,72.44
2023-02-12T07:24:42.635Z,72.40
2023-02-12T07:25:44.606Z,72.48
2023-02-12T07:26:46.515Z,72.19
2023-02-12T07:27:48.281Z,72.47
2023-02-12T07:28:51.070Z,72.53
2023-02-12T07:29:52.866Z,72.48
2023-02-12T07:30:54.790Z,72.67
2023-02-12T07:31:56.587Z,72.67
2023-02-12T07:32:58.343Z,73.10
2023-02-12T07:34:01.120Z,73.15
2023-02-12T07:35:02.837Z,73.30
2023-02-12T07:36:06.471Z,73.44
2023-02-12T07:37:08.219Z,72.94
2023-02-12T07:38:10.189Z,72.93
2023-02-12T07:39:12.749Z,72.38
2023-02-12T07:40:14.723Z,72.81
2023-02-12T07:41:19.894Z,72.73
2023-02-12T07:42:21.578Z,72.70
2023-02-12T07:43:23.311Z,72.76
2023-02-12T07:44:25.036Z,72.61
2023-02-12T07:45:26.834Z,72.51
2023-02-12T07:46:34.012Z,72.47
2023-02-12T07:47:35.719Z,72.39
2023-02-12T07:48:37.754Z,72.48
2023-02-12T07:49:39.498Z,72.39
2023-02-12T07:50:41.238Z,72.32
2023-02-12T07:51:43.524Z,72.25
2023-02-12T07:52:45.716Z,72.62
2023-02-12T07:53:48.297Z,72.53
2023-02-12T07:54:50.226Z,72.45
2023-02-12T07:55:52.021Z,72.35
2023-02-12T07:56:53.817Z,72.36
2023-02-12T07:57:55.544Z,72.38
2023-02-12T07:58:57.472Z,72.13
2023-02-12T07:59:59.110Z,72.09
2023-02-12T08:01:00.981Z,71.45
2023-02-12T08:02:02.813Z,71.82
2023-02-12T08:03:04.491Z,71.71
2023-02-12T08:04:14.649Z,71.75
2023-02-12T08:05:16.732Z,72.58
2023-02-12T08:06:23.688Z,72.46
2023-02-12T08:07:25.753Z,72.64
2023-02-12T08:08:27.454Z,72.58
2023-02-12T08:09:30.621Z,72.11
2023-02-12T08:10:32.602Z,71.84
2023-02-12T08:11:34.502Z,71.91
2023-02-12T08:12:36.486Z,71.91
2023-02-12T08:13:39.356Z,71.80
2023-02-12T08:14:41.106Z,71.49
2023-02-12T08:15:42.807Z,71.01
2023-02-12T08:16:46.472Z,70.72
2023-02-12T08:17:48.351Z,70.76
2023-02-12T08:18:51.283Z,70.55
2023-02-12T08:19:53.050Z,70.74
2023-02-12T08:20:54.774Z,70.95
2023-02-12T08:21:57.493Z,71.01
2023-02-12T08:22:59.179Z,70.83
2023-02-12T08:24:01.394Z,71.26
2023-02-12T08:25:03.181Z,71.10
2023-02-12T08:26:17.496Z,70.88
2023-02-12T08:27:19.213Z,70.68
2023-02-12T08:28:20.921Z,70.88
2023-02-12T08:29:28.631Z,70.64
2023-02-12T08:30:30.324Z,70.53
2023-02-12T08:31:34.961Z,70.35
2023-02-12T08:32:36.765Z,70.41
2023-02-12T08:33:38.742Z,70.52
2023-02-12T08:34:40.487Z,70.34
2023-02-12T08:35:42.408Z,70.31
2023-02-12T08:36:44.445Z,69.96
2023-02-12T08:37:46.380Z,70.13
2023-02-12T08:38:48.652Z,70.27
2023-02-12T08:39:50.420Z,70.10
2023-02-12T08:40:52.227Z,70.18
2023-02-12T08:41:56.045Z,70.26
2023-02-12T08:42:57.777Z,70.27
2023-02-12T08:44:01.759Z,70.42
2023-02-12T08:45:03.578Z,70.72
2023-02-12T08:46:08.258Z,70.69
2023-02-12T08:47:09.972Z,70.46
2023-02-12T08:48:11.674Z,70.55
2023-02-12T08:49:21.970Z,70.51
2023-02-12T08:50:23.782Z,70.71
2023-02-12T08:51:28.787Z,70.39
2023-02-12T08:52:30.456Z,70.09
2023-02-12T08:53:32.656Z,69.78
2023-02-12T08:54:34.461Z,69.87
2023-02-12T08:55:36.199Z,70.00
2023-02-12T08:56:38.469Z,69.62
2023-02-12T08:57:42.267Z,69.87
2023-02-12T08:58:44.984Z,69.76
2023-02-12T08:59:49.193Z,69.69
2023-02-12T09:00:51.036Z,70.07
2023-02-12T09:01:53.264Z,70.06
2023-02-12T09:02:55.035Z,69.94
2023-02-12T09:03:56.759Z,70.03
2023-02-12T09:04:58.530Z,69.76
2023-02-12T09:06:03.707Z,69.78
2023-02-12T09:07:05.531Z,69.52
2023-02-12T09:08:08.345Z,69.54
2023-02-12T09:09:10.272Z,69.71
2023-02-12T09:10:12.118Z,69.78
2023-02-12T09:11:20.131Z,70.01
2023-02-12T09:12:22.021Z,69.42
2023-02-12T09:13:23.815Z,69.76
2023-02-12T09:14:25.558Z,69.71
2023-02-12T09:15:27.404Z,69.80
2023-02-12T09:16:32.336Z,69.42
2023-02-12T09:17:34.085Z,69.64
2023-02-12T09:18:36.750Z,69.36
2023-02-12T09:19:38.467Z,69.77
2023-02-12T09:20:44.271Z,69.80
2023-02-12T09:21:46.037Z,69.90
2023-02-12T09:22:47.855Z,69.93
2023-02-12T09:23:50.097Z,69.66
2023-02-12T09:24:51.839Z,69.61
2023-02-12T09:25:53.758Z,69.25
2023-02-12T09:26:56.306Z,69.11
2023-02-12T09:27:58.111Z,68.68
2023-02-12T09:29:02.279Z,68.21
2023-02-12T09:30:04.298Z,67.99
2023-02-12T09:31:11.728Z,68.19
2023-02-12T09:32:13.588Z,68.05
2023-02-12T09:33:15.629Z,67.79
2023-02-12T09:34:17.411Z,67.48
2023-02-12T09:35:19.278Z,67.04
2023-02-12T09:36:21.181Z,67.05
2023-02-12T09:37:22.991Z,66.86
2023-02-12T09:38:24.743Z,66.45
2023-02-12T09:39:27.677Z,66.49
2023-02-12T09:41:05.958Z,66.39
2023-02-12T09:42:55.269Z,66.51
2023-02-12T09:44:07.069Z,66.36
2023-02-12T09:45:25.864Z,66.28
2023-02-12T09:46:36.771Z,66.42
2023-02-12T09:48:09.304Z,66.05
2023-02-12T09:49:34.784Z,65.27
2023-02-12T09:50:48.563Z,65.94
2023-02-12T09:51:53.049Z,65.67
2023-02-12T09:52:56.503Z,65.67
2023-02-12T09:54:17.340Z,65.53
2023-02-12T09:55:19.838Z,64.86
2023-02-12T09:56:24.490Z,65.10
2023-02-12T09:57:38.038Z,64.01
2023-02-12T09:58:58.937Z,64.39
2023-02-12T10:00:08.132Z,64.20
2023-02-12T10:01:17.022Z,64.28
2023-02-12T10:02:21.825Z,63.90
2023-02-12T10:03:23.760Z,64.40
2023-02-12T10:04:27.935Z,64.48
2023-02-12T10:05:38.720Z,64.25
2023-02-12T10:06:51.269Z,64.23
2023-02-12T10:08:45.619Z,64.16
2023-02-12T10:10:40.044Z,63.53
2023-02-12T10:11:50.329Z,62.90
2023-02-12T10:13:10.494Z,62.68
2023-02-12T10:14:39.153Z,62.91
2023-02-12T10:15:56.673Z,63.37
2023-02-12T10:17:17.301Z,63.33
2023-02-12T10:18:41.417Z,63.01
2023-02-12T10:20:14.046Z,62.82
2023-02-12T10:21:21.559Z,62.22
2023-02-12T10:22:31.693Z,62.38
2023-02-12T10:24:11.752Z,62.50
2023-02-12T10:25:31.901Z,62.60
2023-02-12T10:26:38.904Z,62.31
2023-02-12T10:27:54.947Z,62.69
2023-02-12T10:29:01.419Z,62.12
2023-02-12T10:30:14.006Z,62.49
2023-02-12T10:31:38.407Z,62.44
2023-02-12T10:32:44.261Z,62.89
2023-02-12T10:33:48.927Z,63.31
2023-02-12T10:34:51.662Z,62.63
2023-02-12T10:36:04.008Z,62.16
2023-02-12T10:37:12.658Z,62.04
2023-02-12T10:38:20.023Z,62.52
2023-02-12T10:39:24.752Z,61.94
2023-02-12T10:40:30.343Z,61.71
2023-02-12T10:41:37.270Z,61.66
2023-02-12T10:42:44.489Z,61.24
2023-02-12T10:43:46.472Z,61.59
2023-02-12T10:44:48.480Z,61.61
2023-02-12T10:45:50.391Z,61.83
2023-02-12T10:46:52.350Z,62.14
2023-02-12T10:48:04.657Z,62.14
2023-02-12T10:49:08.986Z,61.52
2023-02-12T10:50:36.393Z,61.80
2023-02-12T10:52:02.458Z,62.14
2023-02-12T10:53:04.251Z,61.74
2023-02-12T10:54:38.088Z,61.81
2023-02-12T10:55:39.857Z,61.06
2023-02-12T10:56:41.716Z,61.41
2023-02-12T10:57:43.740Z,60.90
2023-02-12T10:58:56.153Z,60.58
2023-02-12T11:00:35.486Z,60.31
2023-02-12T11:01:38.930Z,60.21
2023-02-12T11:03:00.780Z,59.60
2023-02-12T11:04:30.769Z,59.84
2023-02-12T11:05:35.839Z,60.73
2023-02-12T11:06:37.890Z,60.75
2023-02-12T11:07:48.917Z,60.47
2023-02-12T11:08:50.837Z,60.76
2023-02-12T11:09:54.841Z,60.55
2023-02-12T11:11:07.735Z,60.07
2023-02-12T11:12:25.693Z,60.15
2023-02-12T11:13:28.713Z,59.85
2023-02-12T11:14:31.281Z,59.88
2023-02-12T11:15:48.062Z,59.17
2023-02-12T11:16:58.849Z,59.63
2023-02-12T11:18:08.689Z,59.22
2023-02-12T11:19:25.162Z,60.08
2023-02-12T11:20:37.820Z,59.33
2023-02-12T11:21:39.822Z,59.53
2023-02-12T11:22:54.445Z,59.47
2023-02-12T11:24:19.085Z,59.35
2023-02-12T11:25:22.803Z,59.02
2023-02-12T11:26:28.024Z,58.58
2023-02-12T11:27:32.705Z,58.31
2023-02-12T11:28:37.172Z,58.56
2023-02-12T11:29:39.824Z,58.53
2023-02-12T11:30:56.516Z,59.07
2023-02-12T11:32:06.019Z,58.80
2023-02-12T11:33:25.466Z,58.00
2023-02-12T11:34:27.327Z,58.36
2023-02-12T11:35:29.184Z,57.48
2023-02-12T11:36:35.508Z,57.65
2023-02-12T11:37:42.103Z,57.49
2023-02-12T11:38:55.993Z,57.56
2023-02-12T11:39:57.806Z,57.22
2023-02-12T11:41:18.366Z,57.60
2023-02-12T11:42:23.315Z,58.15
2023-02-12T11:43:26.172Z,58.07
2023-02-12T11:44:34.205Z,57.78
2023-02-12T11:45:44.376Z,57.89
2023-02-12T11:46:55.802Z,57.84
2023-02-12T11:47:58.068Z,57.59
2023-02-12T11:48:59.779Z,57.79
2023-02-12T11:50:25.534Z,58.18
2023-02-12T11:51:30.830Z,58.37
2023-02-12T11:52:37.343Z,58.61
2023-02-12T11:53:46.886Z,58.41
2023-02-12T11:54:51.093Z,58.47
2023-02-12T11:56:01.868Z,58.68
2023-02-12T11:57:03.938Z,58.95
2023-02-12T11:58:16.815Z,58.88
2023-02-12T11:59:30.401Z,59.53
2023-02-12T12:00:57.177Z,59.64
2023-02-12T12:02:09.334Z,59.83
2023-02-12T12:03:30.440Z,59.68
2023-02-12T12:04:34.867Z,59.20
2023-02-12T12:05:43.589Z,59.17
2023-02-12T12:07:08.508Z,59.21
2023-02-12T12:08:40.759Z,59.19
2023-02-12T12:10:03.492Z,59.00
2023-02-12T12:11:13.396Z,59.13
2023-02-12T12:12:30.250Z,58.82
2023-02-12T12:13:43.305Z,58.72
2023-02-12T12:14:54.398Z,58.91
2023-02-12T12:16:13.282Z,59.09
2023-02-12T12:17:17.531Z,58.94
2023-02-12T12:18:39.469Z,59.07
2023-02-12T12:19:47.988Z,59.29
2023-02-12T12:20:54.543Z,58.97
2023-02-12T12:22:04.165Z,59.06
2023-02-12T12:23:19.181Z,59.39
2023-02-12T12:24:29.251Z,58.96
2023-02-12T12:25:33.053Z,59.10
2023-02-12T12:26:34.976Z,58.74
2023-02-12T12:27:58.788Z,58.48
2023-02-12T12:29:15.522Z,58.44
2023-02-12T12:30:53.241Z,58.83
2023-02-12T12:32:05.293Z,58.50
2023-02-12T12:33:16.172Z,58.61
2023-02-12T12:34:20.670Z,58.68
2023-02-12T12:35:58.839Z,58.74
2023-02-12T12:37:44.713Z,59.15
2023-02-12T12:39:10.777Z,58.71
2023-02-12T12:40:22.037Z,58.16
2023-02-12T12:41:44.772Z,58.41
2023-02-12T12:43:01.599Z,58.47
2023-02-12T12:44:21.306Z,58.16
2023-02-12T12:45:29.052Z,57.82
2023-02-12T12:47:02.997Z,57.45
2023-02-12T12:48:16.702Z,57.61
2023-02-12T12:49:40.348Z,57.79
2023-02-12T12:51:05.134Z,58.37
2023-02-12T12:52:34.528Z,58.33
2023-02-12T12:54:17.295Z,58.57
2023-02-12T12:55:43.973Z,58.55
2023-02-12T12:56:48.672Z,58.53
2023-02-12T12:58:07.066Z,57.91
2023-02-12T12:59:30.513Z,57.16
2023-02-12T13:00:44.565Z,55.79
2023-02-12T13:02:07.943Z,55.26
2023-02-12T13:03:27.721Z,55.20
2023-02-12T13:04:54.853Z,55.37
2023-02-12T13:06:02.749Z,55.32
2023-02-12T13:07:13.378Z,55.15
2023-02-12T13:08:24.042Z,54.25
2023-02-12T13:09:25.738Z,54.48
2023-02-12T13:10:36.961Z,54.43
2023-02-12T13:11:57.302Z,54.30
2023-02-12T13:13:09.758Z,54.23
2023-02-12T13:14:37.824Z,53.06
2023-02-12T13:15:50.289Z,52.77
2023-02-12T13:17:14.401Z,52.58
2023-02-12T13:18:33.868Z,53.00
2023-02-12T13:19:55.874Z,52.35
2023-02-12T13:21:31.012Z,52.92
2023-02-12T13:22:44.487Z,53.17
2023-02-12T13:23:53.244Z,52.76
2023-02-12T13:25:02.941Z,52.27
2023-02-12T13:26:31.737Z,52.94
2023-02-12T13:27:39.660Z,52.10
2023-02-12T13:28:46.714Z,51.44
2023-02-12T13:30:17.783Z,50.90
2023-02-12T13:31:34.552Z,51.03
2023-02-12T13:32:46.502Z,52.26
2023-02-12T13:34:07.131Z,53.77
2023-02-12T13:35:16.662Z,55.14
2023-02-12T13:36:18.545Z,55.38
2023-02-12T13:37:45.588Z,56.22
2023-02-12T13:39:16.307Z,56.34
2023-02-12T13:40:26.938Z,55.97
2023-02-12T13:41:29.483Z,56.55
2023-02-12T13:42:50.593Z,56.72
2023-02-12T13:43:55.013Z,56.74
2023-02-12T13:45:24.195Z,56.81
2023-02-12T13:46:41.074Z,57.06
2023-02-12T13:47:51.587Z,57.25
2023-02-12T13:49:34.735Z,57.34
2023-02-12T13:50:49.544Z,57.45
2023-02-12T13:52:01.327Z,57.52
2023-02-12T13:53:08.867Z,57.81
2023-02-12T13:54:32.549Z,57.79
2023-02-12T13:56:05.620Z,58.12
2023-02-12T13:57:15.452Z,58.08
2023-02-12T13:58:35.274Z,57.73
2023-02-12T13:59:36.936Z,57.52
2023-02-12T14:00:48.108Z,57.27
2023-02-12T14:01:51.204Z,56.42
2023-02-12T14:02:53.243Z,56.90
2023-02-12T14:03:55.015Z,57.27
2023-02-12T14:04:59.928Z,57.33
2023-02-12T14:06:21.656Z,56.51
2023-02-12T14:07:23.712Z,56.52
2023-02-12T14:08:38.045Z,56.50
2023-02-12T14:09:45.218Z,56.83
2023-02-12T14:11:05.229Z,57.24
2023-02-12T14:12:28.552Z,57.32
2023-02-12T14:13:34.012Z,57.48
2023-02-12T14:14:40.384Z,57.56
2023-02-12T14:15:45.418Z,58.04
2023-02-12T14:16:47.285Z,58.46
2023-02-12T14:18:27.380Z,56.78
2023-02-12T14:19:53.286Z,57.37
2023-02-12T14:21:13.419Z,58.54
2023-02-12T14:22:35.017Z,58.95
2023-02-12T14:23:37.208Z,59.39
2023-02-12T14:24:38.991Z,59.72
2023-02-12T14:25:45.732Z,59.75
2023-02-12T14:26:47.620Z,59.72
2023-02-12T14:27:55.101Z,59.98
2023-02-12T14:29:01.926Z,59.88
2023-02-12T14:30:09.960Z,60.33
2023-02-12T14:31:20.702Z,60.03
2023-02-12T14:32:51.445Z,59.49
2023-02-12T14:34:05.328Z,58.50
2023-02-12T14:35:45.248Z,57.27
2023-02-12T14:36:48.000Z,56.12